MSC Bettina — HPFG — position and weather

sailwx.info

Track history (hours):
 
Tides and Currents Weather Stations Pressure Air Temp Water Temp Dewpoint Dewpoint Depression Visibility Wind Speed Wind Dir Waves Ship Positions

MSC Bettina

Last reported at 2016-Jul-27 23:24 UTC. Time now 2016-Jul-28 10:36 UTC.
Position N 31°28' E 032°18'.

Length 366 m; draft 15.8 m.

Type: Ship (hazmat cat A). MMSI: 352361000.

Date/timePositionNaut miles runAvg speedWind from/ knotsBaromVisibWave heightAir tempDewpointWater temp
2016-Jul-27 23:24N 31°28' E 032°18'0 0.0
2016-Jul-27 22:33N 31°28' E 032°18'0 0.0
2016-Jul-27 21:33N 31°28' E 032°18'0 0.1
2016-Jul-27 20:29N 31°28' E 032°18'7 7.9
2016-Jul-27 19:33N 31°33' E 032°11'1211.7
2016-Jul-27 18:33N 31°41' E 032°02'1413.7
2016-Jul-27 17:33N 31°50' E 031°50'1615.9
2016-Jul-27 16:34N 32°00' E 031°35'1615.8
2016-Jul-27 15:33N 32°10' E 031°21'1615.8
2016-Jul-27 14:33N 32°20' E 031°06'1615.9
2016-Jul-27 13:33N 32°30' E 030°52'1615.8
2016-Jul-27 12:33N 32°40' E 030°37'1615.7
2016-Jul-27 11:33N 32°50' E 030°23'1715.8
2016-Jul-27 10:30N 33°01' E 030°07'1816.0
2016-Jul-27 09:21N 33°12' E 029°50'1316.0
2016-Jul-27 08:33N 33°20' E 029°38'6415.8
2016-Jul-27 04:31N 34°01' E 028°39'29915.8
2016-Jul-26 09:33N 37°11' E 023°55'1616.0
2016-Jul-26 08:33N 37°26' E 023°48'1615.7
2016-Jul-26 07:34N 37°40' E 023°41'1514.9
2016-Jul-26 06:33N 37°55' E 023°36'3 2.7
2016-Jul-26 05:31N 37°57' E 023°35'0 0.0
2016-Jul-26 04:31N 37°57' E 023°35'0 0.0
2016-Jul-26 03:31N 37°57' E 023°35'0 0.0
2016-Jul-26 02:31N 37°57' E 023°35'0 0.0
2016-Jul-26 01:32N 37°57' E 023°35'0 0.0
2016-Jul-26 00:32N 37°57' E 023°35'0 0.0
2016-Jul-25 23:32N 37°57' E 023°35'0 0.0
2016-Jul-25 22:31N 37°57' E 023°35'0 0.0
2016-Jul-25 21:31N 37°57' E 023°35'0 0.0
2016-Jul-25 20:31N 37°57' E 023°35'0 0.0
2016-Jul-25 19:31N 37°57' E 023°35'0 0.0
2016-Jul-25 18:31N 37°57' E 023°35'0 0.0
2016-Jul-25 17:31N 37°57' E 023°35'0 0.0
2016-Jul-25 16:31N 37°57' E 023°35'0 0.0
2016-Jul-25 15:31N 37°57' E 023°35'0 0.0
2016-Jul-25 14:31N 37°57' E 023°35'0 0.0
2016-Jul-25 13:31N 37°57' E 023°35'0 0.0
2016-Jul-25 12:31N 37°57' E 023°35'0 0.0
2016-Jul-25 11:33N 37°57' E 023°35'0 0.0
2016-Jul-25 10:33N 37°57' E 023°35'0 0.0
2016-Jul-25 09:33N 37°57' E 023°35'0 0.0
2016-Jul-25 08:33N 37°57' E 023°35'0 0.0
2016-Jul-25 07:33N 37°57' E 023°35'0 0.0
2016-Jul-25 06:33N 37°57' E 023°35'0 0.0
2016-Jul-25 05:34N 37°57' E 023°35'0 0.0
2016-Jul-25 04:33N 37°57' E 023°35'0 0.0
2016-Jul-25 03:33N 37°57' E 023°35'0 0.0
2016-Jul-25 02:33N 37°57' E 023°35'0 0.0
2016-Jul-25 01:33N 37°57' E 023°35'0 0.0
2016-Jul-25 00:33N 37°57' E 023°35'0 0.0
2016-Jul-24 23:33N 37°57' E 023°35'3 3.2
2016-Jul-24 22:33N 37°54' E 023°35'1 1.4
2016-Jul-24 21:34N 37°53' E 023°35'8 8.1
2016-Jul-24 20:33N 37°47' E 023°42'1312.7
2016-Jul-24 19:33N 37°34' E 023°38'0 0.3
2016-Jul-24 18:31N 37°34' E 023°37'1 1.0
2016-Jul-24 17:31N 37°34' E 023°39'1 1.0
2016-Jul-24 16:31N 37°34' E 023°40'1 0.8
2016-Jul-24 15:33N 37°35' E 023°41'7 7.4
2016-Jul-24 14:34N 37°38' E 023°49'8 8.4
2016-Jul-24 13:33N 37°34' E 023°58'17 8.3
2016-Jul-24 11:31N 37°45' E 024°15'9 9.2
2016-Jul-24 10:31N 37°50' E 024°25'20 8.9
2016-Jul-24 08:15N 38°05' E 024°42'7 9.5
2016-Jul-24 07:33N 38°11' E 024°45'8 8.3
2016-Jul-24 06:34N 38°18' E 024°50'9 9.4
2016-Jul-24 05:33N 38°27' E 024°55'18 9.1
2016-Jul-24 03:33N 38°43' E 025°06'9 9.1
2016-Jul-24 02:33N 38°51' E 025°10'83 8.9
2016-Jul-23 17:13N 40°01' E 026°08'  
Track history (hours):
 
Tides and Currents Weather Stations Pressure Air Temp Water Temp Dewpoint Dewpoint Depression Visibility Wind Speed Wind Dir Waves Ship Positions

MSC Bettina

Last reported at 2016-Jul-27 23:24 UTC. Time now 2016-Jul-28 10:36 UTC.
Position N 31°28' E 032°18'.

Length 366 m; draft 15.8 m.

Type: Ship (hazmat cat A). MMSI: 352361000.

Date/timePositionNaut miles runAvg speedWind from/ knotsBaromVisibWave heightAir tempDewpointWater temp
2016-Jul-27 23:24N 31°28' E 032°18'0 0.0
2016-Jul-27 22:33N 31°28' E 032°18'0 0.0
2016-Jul-27 21:33N 31°28' E 032°18'0 0.1
2016-Jul-27 20:29N 31°28' E 032°18'7 7.9
2016-Jul-27 19:33N 31°33' E 032°11'1211.7
2016-Jul-27 18:33N 31°41' E 032°02'1413.7
2016-Jul-27 17:33N 31°50' E 031°50'1615.9
2016-Jul-27 16:34N 32°00' E 031°35'1615.8
2016-Jul-27 15:33N 32°10' E 031°21'1615.8
2016-Jul-27 14:33N 32°20' E 031°06'1615.9
2016-Jul-27 13:33N 32°30' E 030°52'1615.8
2016-Jul-27 12:33N 32°40' E 030°37'1615.7
2016-Jul-27 11:33N 32°50' E 030°23'1715.8
2016-Jul-27 10:30N 33°01' E 030°07'1816.0
2016-Jul-27 09:21N 33°12' E 029°50'1316.0
2016-Jul-27 08:33N 33°20' E 029°38'6415.8
2016-Jul-27 04:31N 34°01' E 028°39'29915.8
2016-Jul-26 09:33N 37°11' E 023°55'1616.0
2016-Jul-26 08:33N 37°26' E 023°48'1615.7
2016-Jul-26 07:34N 37°40' E 023°41'1514.9
2016-Jul-26 06:33N 37°55' E 023°36'3 2.7
2016-Jul-26 05:31N 37°57' E 023°35'0 0.0
2016-Jul-26 04:31N 37°57' E 023°35'0 0.0
2016-Jul-26 03:31N 37°57' E 023°35'0 0.0
2016-Jul-26 02:31N 37°57' E 023°35'0 0.0
2016-Jul-26 01:32N 37°57' E 023°35'0 0.0
2016-Jul-26 00:32N 37°57' E 023°35'0 0.0
2016-Jul-25 23:32N 37°57' E 023°35'0 0.0
2016-Jul-25 22:31N 37°57' E 023°35'0 0.0
2016-Jul-25 21:31N 37°57' E 023°35'0 0.0
2016-Jul-25 20:31N 37°57' E 023°35'0 0.0
2016-Jul-25 19:31N 37°57' E 023°35'0 0.0
2016-Jul-25 18:31N 37°57' E 023°35'0 0.0
2016-Jul-25 17:31N 37°57' E 023°35'0 0.0
2016-Jul-25 16:31N 37°57' E 023°35'0 0.0
2016-Jul-25 15:31N 37°57' E 023°35'0 0.0
2016-Jul-25 14:31N 37°57' E 023°35'0 0.0
2016-Jul-25 13:31N 37°57' E 023°35'0 0.0
2016-Jul-25 12:31N 37°57' E 023°35'0 0.0
2016-Jul-25 11:33N 37°57' E 023°35'0 0.0
2016-Jul-25 10:33N 37°57' E 023°35'0 0.0
2016-Jul-25 09:33N 37°57' E 023°35'0 0.0
2016-Jul-25 08:33N 37°57' E 023°35'0 0.0
2016-Jul-25 07:33N 37°57' E 023°35'0 0.0
2016-Jul-25 06:33N 37°57' E 023°35'0 0.0
2016-Jul-25 05:34N 37°57' E 023°35'0 0.0
2016-Jul-25 04:33N 37°57' E 023°35'0 0.0
2016-Jul-25 03:33N 37°57' E 023°35'0 0.0
2016-Jul-25 02:33N 37°57' E 023°35'0 0.0
2016-Jul-25 01:33N 37°57' E 023°35'0 0.0
2016-Jul-25 00:33N 37°57' E 023°35'0 0.0
2016-Jul-24 23:33N 37°57' E 023°35'3 3.2
2016-Jul-24 22:33N 37°54' E 023°35'1 1.4
2016-Jul-24 21:34N 37°53' E 023°35'8 8.1
2016-Jul-24 20:33N 37°47' E 023°42'1312.7
2016-Jul-24 19:33N 37°34' E 023°38'0 0.3
2016-Jul-24 18:31N 37°34' E 023°37'1 1.0
2016-Jul-24 17:31N 37°34' E 023°39'1 1.0
2016-Jul-24 16:31N 37°34' E 023°40'1 0.8
2016-Jul-24 15:33N 37°35' E 023°41'7 7.4
2016-Jul-24 14:34N 37°38' E 023°49'8 8.4
2016-Jul-24 13:33N 37°34' E 023°58'17 8.3
2016-Jul-24 11:31N 37°45' E 024°15'9 9.2
2016-Jul-24 10:31N 37°50' E 024°25'20 8.9
2016-Jul-24 08:15N 38°05' E 024°42'7 9.5
2016-Jul-24 07:33N 38°11' E 024°45'8 8.3
2016-Jul-24 06:34N 38°18' E 024°50'9 9.4
2016-Jul-24 05:33N 38°27' E 024°55'18 9.1
2016-Jul-24 03:33N 38°43' E 025°06'9 9.1
2016-Jul-24 02:33N 38°51' E 025°10'83 8.9
2016-Jul-23 17:13N 40°01' E 026°08'  

Dump ship's entire track history